Time;durP1;ratioP1;P1;durP2;ratioP2;P2;SDS_P1;SDS_P2;PMS_P1;PMS_P2;Temp;Humidity;BMP_temperature;BMP_pressure;BME280_temperature;BME280_humidity;BME280_pressure;Samples;Min_cycle;Max_cycle;Signal;HPM_P1;HPM_P2
2021/07/02 00:01:53;;;;;;;85.60;35.58;;;;;;;19.19;100.00;100744.38;4932374;29;20433;-75
2021/07/02 00:04:18;;;;;;;91.05;37.95;;;;;;;19.14;100.00;100745.63;4952144;28;20039;-74
2021/07/02 00:06:44;;;;;;;87.45;36.72;;;;;;;19.15;100.00;100744.44;4932521;29;20050;-75
2021/07/02 00:09:09;;;;;;;95.72;38.45;;;;;;;19.17;100.00;100744.81;4951013;28;20085;-75
2021/07/02 00:11:35;;;;;;;97.32;38.60;;;;;;;19.20;100.00;100741.25;4949994;28;20023;-75
2021/07/02 00:14:00;;;;;;;97.05;39.92;;;;;;;19.23;100.00;100743.16;4952666;28;20395;-75
2021/07/02 00:16:26;;;;;;;105.25;41.78;;;;;;;19.22;100.00;100740.84;4932404;29;20057;-75
2021/07/02 00:18:51;;;;;;;101.03;40.40;;;;;;;19.20;100.00;100730.31;4953189;28;20038;-75
2021/07/02 00:21:17;;;;;;;119.95;41.97;;;;;;;19.14;100.00;100723.78;4953081;28;20469;-75
2021/07/02 00:23:42;;;;;;;107.07;40.28;;;;;;;19.04;100.00;100723.91;4941103;28;20075;-75
2021/07/02 00:26:08;;;;;;;107.10;39.95;;;;;;;19.05;100.00;100728.97;4948635;28;20039;-75
2021/07/02 00:28:33;;;;;;;99.85;39.90;;;;;;;19.14;100.00;100726.53;4934604;29;20031;-75
2021/07/02 00:30:59;;;;;;;106.30;41.00;;;;;;;19.11;100.00;100734.72;4952304;28;20117;-74
2021/07/02 00:33:25;;;;;;;110.60;41.00;;;;;;;19.06;100.00;100735.97;4950444;28;20039;-75
2021/07/02 00:35:50;;;;;;;111.07;41.25;;;;;;;19.10;100.00;100742.19;4949950;28;20035;-75
2021/07/02 00:38:16;;;;;;;99.80;40.65;;;;;;;19.03;100.00;100736.03;4945603;28;20466;-74
2021/07/02 00:40:41;;;;;;;103.38;42.72;;;;;;;18.99;100.00;100729.84;4950453;29;20035;-75
2021/07/02 00:43:07;;;;;;;105.38;43.92;;;;;;;19.06;100.00;100735.97;4949179;28;20047;-75
2021/07/02 00:45:34;;;;;;;106.50;44.35;;;;;;;19.06;100.00;100735.97;4949340;29;20027;-75
2021/07/02 00:48:03;;;;;;;105.35;45.75;;;;;;;19.04;100.00;100740.31;4935074;29;20046;-75
2021/07/02 00:50:31;;;;;;;114.88;48.00;;;;;;;19.01;100.00;100736.44;4935314;29;20401;-74
2021/07/02 00:52:57;;;;;;;108.78;45.20;;;;;;;18.88;100.00;100736.22;4951570;29;20031;-74
2021/07/02 00:55:23;;;;;;;105.25;44.38;;;;;;;18.93;100.00;100741.19;4949351;29;20039;-74
2021/07/02 00:57:49;;;;;;;93.82;41.28;;;;;;;18.93;100.00;100740.41;4947454;28;20038;-74
2021/07/02 01:00:15;;;;;;;85.22;36.95;;;;;;;18.90;100.00;100736.56;4951328;28;20038;-75
2021/07/02 01:02:41;;;;;;;79.75;36.40;;;;;;;18.95;100.00;100742.75;4944048;28;20031;-75
2021/07/02 01:05:09;;;;;;;74.43;35.72;;;;;;;19.02;100.00;100740.72;4944866;29;20138;-75
2021/07/02 01:07:39;;;;;;;87.50;36.67;;;;;;;18.97;100.00;100743.88;4945170;28;20584;-75
2021/07/02 01:10:05;;;;;;;79.75;37.70;;;;;;;18.88;100.00;100736.22;4941301;28;20118;-75
2021/07/02 01:12:33;;;;;;;78.50;35.42;;;;;;;18.91;100.00;100740.84;4930318;29;20027;-75
2021/07/02 01:14:59;;;;;;;76.95;35.95;;;;;;;18.96;100.00;100736.88;4950464;28;20043;-75
2021/07/02 01:17:25;;;;;;;83.32;35.72;;;;;;;18.83;100.00;100722.25;4916710;29;20034;-75
2021/07/02 01:19:53;;;;;;;79.03;35.58;;;;;;;18.97;100.00;100737.66;4947866;28;20031;-75
2021/07/02 01:22:26;;;;;;;76.00;33.45;;;;;;;18.93;100.00;100741.19;4937227;28;20023;-75
2021/07/02 01:24:56;;;;;;;82.18;34.83;;;;;;;19.01;100.00;100738.41;4931396;29;20040;-75
2021/07/02 01:27:23;;;;;;;76.65;33.90;;;;;;;18.99;100.00;100741.53;4943628;28;20058;-75
2021/07/02 01:29:50;;;;;;;83.93;34.22;;;;;;;18.99;100.00;100746.97;4938989;29;20110;-75
2021/07/02 01:32:17;;;;;;;67.28;31.08;;;;;;;18.94;100.00;100741.97;4938446;29;20066;-74
2021/07/02 01:34:42;;;;;;;72.80;30.88;;;;;;;19.00;100.00;100748.53;4944075;28;20043;-75
2021/07/02 01:37:10;;;;;;;67.00;31.48;;;;;;;18.98;100.00;100745.44;4933807;29;20110;-75
2021/07/02 01:39:38;;;;;;;74.78;30.17;;;;;;;19.06;100.00;100746.91;4923964;29;20545;-75
2021/07/02 01:42:09;;;;;;;67.20;28.33;;;;;;;18.98;100.00;100747.41;4946991;28;20079;-74
2021/07/02 01:44:38;;;;;;;62.03;28.13;;;;;;;18.98;100.00;100752.84;4927931;29;20395;-74
2021/07/02 01:47:05;;;;;;;67.90;28.73;;;;;;;18.96;100.00;100761.47;4924021;28;20031;-74
2021/07/02 01:49:31;;;;;;;64.82;27.58;;;;;;;18.90;100.00;100754.91;4915104;29;20122;-74
2021/07/02 01:51:57;;;;;;;65.72;28.70;;;;;;;18.86;100.00;100760.41;4976459;23;20122;-71
2021/07/02 01:54:23;;;;;;;71.68;28.98;;;;;;;18.75;100.00;100756.25;4982719;28;20130;-70
2021/07/02 01:56:50;;;;;;;65.00;28.95;;;;;;;18.74;100.00;100752.75;4989006;28;20429;-71
2021/07/02 01:59:20;;;;;;;68.90;29.05;;;;;;;18.85;100.00;100760.81;4971161;28;20023;-70
2021/07/02 02:01:52;;;;;;;69.80;28.85;;;;;;;18.84;100.00;100754.59;4957781;28;20043;-71
2021/07/02 02:04:22;;;;;;;76.28;29.15;;;;;;;18.88;100.00;100760.00;4953575;28;20122;-70
2021/07/02 02:06:48;;;;;;;63.60;28.92;;;;;;;18.86;100.00;100759.63;4952292;28;20035;-70
2021/07/02 02:09:13;;;;;;;71.15;27.75;;;;;;;18.86;100.00;100771.31;4958428;28;20026;-70
2021/07/02 02:11:39;;;;;;;62.65;25.88;;;;;;;18.81;100.00;100763.56;4967709;28;20094;-71
2021/07/02 02:14:10;;;;;;;56.67;25.00;;;;;;;18.81;100.00;100762.81;4955677;28;20038;-71
2021/07/02 02:16:41;;;;;;;58.42;24.73;;;;;;;18.75;100.00;100767.94;4954491;28;20027;-71
2021/07/02 02:19:09;;;;;;;55.03;24.05;;;;;;;18.82;100.00;100767.84;4949151;28;20054;-71
2021/07/02 02:21:36;;;;;;;58.47;25.77;;;;;;;18.88;100.00;100768.19;4942808;29;20037;-70
2021/07/02 02:24:02;;;;;;;66.53;26.10;;;;;;;18.80;100.00;100772.16;4948172;28;20384;-71
2021/07/02 02:26:27;;;;;;;59.55;26.00;;;;;;;18.74;100.00;100762.88;4950824;28;20032;-71
2021/07/02 02:28:54;;;;;;;60.28;24.80;;;;;;;18.70;100.00;100764.88;4949169;28;20130;-71
2021/07/02 02:31:19;;;;;;;63.50;23.92;;;;;;;18.76;100.00;100772.22;4949792;28;20028;-71
2021/07/02 02:33:50;;;;;;;54.50;24.70;;;;;;;18.73;100.00;100769.53;4941786;28;20035;-71
2021/07/02 02:36:15;;;;;;;50.17;22.30;;;;;;;18.77;100.00;100778.44;4946889;28;20042;-70
2021/07/02 02:38:41;;;;;;;46.45;22.90;;;;;;;18.69;100.00;100775.03;4948826;28;20031;-71
2021/07/02 02:41:07;;;;;;;60.38;26.90;;;;;;;18.74;100.00;100768.34;4939452;28;20038;-69
2021/07/02 02:43:33;;;;;;;56.03;25.70;;;;;;;18.75;100.00;100778.09;4942991;28;20031;-71
2021/07/02 02:45:59;;;;;;;59.50;26.77;;;;;;;18.75;100.00;100780.81;4939251;28;20038;-71
2021/07/02 02:48:25;;;;;;;57.40;26.33;;;;;;;18.69;100.00;100776.97;4964290;28;20035;-70
2021/07/02 02:50:50;;;;;;;56.13;26.27;;;;;;;18.73;100.00;100783.19;4943889;29;20161;-70
2021/07/02 02:53:16;;;;;;;47.53;24.85;;;;;;;18.67;100.00;100776.59;4945553;28;20130;-71
2021/07/02 02:55:42;;;;;;;56.40;24.27;;;;;;;18.62;100.00;100777.06;4951435;28;20063;-71
2021/07/02 02:58:08;;;;;;;56.33;24.60;;;;;;;18.49;100.00;100782.25;4956882;28;20509;-70
2021/07/02 03:00:33;;;;;;;45.83;22.92;;;;;;;18.49;100.00;100782.25;4954766;28;20031;-70
2021/07/02 03:02:59;;;;;;;43.50;22.05;;;;;;;18.55;100.00;100779.84;4941702;28;20090;-71
2021/07/02 03:05:25;;;;;;;46.38;22.23;;;;;;;18.49;100.00;100798.63;4945721;28;20505;-71
2021/07/02 03:07:53;;;;;;;37.85;21.23;;;;;;;18.41;100.00;100796.31;4950722;28;20035;-70
2021/07/02 03:10:19;;;;;;;51.10;22.35;;;;;;;18.46;100.00;100785.78;4961141;28;20396;-70
2021/07/02 03:12:45;;;;;;;43.40;20.77;;;;;;;18.42;100.00;100793.25;4957570;28;20114;-70
2021/07/02 03:15:14;;;;;;;45.58;22.60;;;;;;;18.46;100.00;100799.44;4952213;28;20039;-71
2021/07/02 03:17:41;;;;;;;38.60;21.13;;;;;;;18.56;100.00;100793.06;4949688;28;20034;-71
2021/07/02 03:20:09;;;;;;;43.00;21.58;;;;;;;18.56;100.00;100797.78;4961113;28;20438;-70
2021/07/02 03:22:36;;;;;;;47.70;21.80;;;;;;;18.52;100.00;100797.81;4946506;29;20035;-71
2021/07/02 03:25:02;;;;;;;45.80;21.42;;;;;;;18.46;100.00;100804.09;4940488;28;20035;-70
2021/07/02 03:27:28;;;;;;;44.70;21.02;;;;;;;18.49;100.00;100795.09;4935271;29;20034;-71
2021/07/02 03:29:53;;;;;;;49.10;23.67;;;;;;;18.51;100.00;100806.38;4958847;28;20039;-71
2021/07/02 03:32:19;;;;;;;51.80;22.85;;;;;;;18.42;100.00;100797.88;4923073;29;20520;-71
2021/07/02 03:34:48;;;;;;;41.53;21.70;;;;;;;18.39;100.00;100815.81;4950227;28;20099;-71
2021/07/02 03:37:17;;;;;;;40.50;20.67;;;;;;;18.41;100.00;100810.72;4921718;29;20034;-70
2021/07/02 03:39:46;;;;;;;44.70;21.55;;;;;;;18.50;100.00;100808.38;4951418;28;20035;-70
2021/07/02 03:42:13;;;;;;;46.83;20.48;;;;;;;18.46;100.00;100817.75;4949519;28;20055;-70
2021/07/02 03:44:39;;;;;;;36.58;20.85;;;;;;;18.37;100.00;100825.59;4954525;28;20066;-70
2021/07/02 03:47:05;;;;;;;41.17;21.08;;;;;;;18.45;100.00;100821.63;4947923;28;20034;-70
2021/07/02 03:49:31;;;;;;;42.33;19.77;;;;;;;18.41;100.00;100829.03;4931798;28;20035;-70
2021/07/02 03:51:57;;;;;;;37.38;20.52;;;;;;;18.32;100.00;100824.06;4948691;28;20036;-71
2021/07/02 03:54:22;;;;;;;42.33;20.45;;;;;;;18.35;100.00;100831.44;4933287;28;20046;-71
2021/07/02 03:59:32;;;;;;;39.10;17.60;;;;;;;18.40;100.00;100827.50;4953711;28;20038;-70
2021/07/02 04:01:57;;;;;;;43.42;19.13;;;;;;;18.41;100.00;100829.03;4945534;28;20035;-70
2021/07/02 04:04:23;;;;;;;34.65;17.50;;;;;;;18.34;100.00;100834.56;4955417;28;20484;-70
2021/07/02 04:06:49;;;;;;;33.70;17.70;;;;;;;18.43;100.00;100837.63;4949115;28;20477;-70
2021/07/02 04:09:15;;;;;;;34.75;16.80;;;;;;;18.39;100.00;100840.38;4952700;28;20100;-70
2021/07/02 04:11:40;;;;;;;34.47;16.85;;;;;;;18.39;100.00;100839.63;4958676;28;20445;-70
2021/07/02 04:14:06;;;;;;;32.88;16.27;;;;;;;18.40;100.00;100839.19;4944073;29;20086;-71
2021/07/02 04:16:31;;;;;;;31.35;16.38;;;;;;;18.43;100.00;100840.34;4954577;28;20046;-71
2021/07/02 04:18:57;;;;;;;30.77;16.23;;;;;;;18.34;100.00;100842.75;4956031;28;20046;-70
2021/07/02 04:21:22;;;;;;;35.15;16.60;;;;;;;18.41;100.00;100839.94;4961600;28;20034;-70
2021/07/02 04:23:48;;;;;;;40.30;16.42;;;;;;;18.46;100.00;100845.81;4949562;28;20038;-70
2021/07/02 04:26:14;;;;;;;36.90;16.38;;;;;;;18.43;100.00;100845.81;4953032;28;20066;-71
2021/07/02 04:28:39;;;;;;;41.70;16.92;;;;;;;18.39;100.00;100840.38;4946591;28;20039;-70
2021/07/02 04:31:05;;;;;;;31.33;16.05;;;;;;;18.47;100.00;100847.34;4946844;28;20054;-70
2021/07/02 04:33:31;;;;;;;30.77;15.75;;;;;;;18.57;100.00;100854.66;4952358;28;20417;-70
2021/07/02 04:35:56;;;;;;;29.85;15.32;;;;;;;18.55;100.00;100854.28;4954061;28;20453;-70
2021/07/02 04:38:22;;;;;;;33.70;15.52;;;;;;;18.58;100.00;100850.00;4952167;29;20077;-71
2021/07/02 04:40:48;;;;;;;31.15;15.95;;;;;;;18.59;100.00;100848.78;4948529;28;20023;-70
2021/07/02 04:43:14;;;;;;;29.13;15.18;;;;;;;18.54;100.00;100850.00;4951375;28;20125;-70
2021/07/02 04:45:41;;;;;;;33.95;16.33;;;;;;;18.54;100.00;100852.72;4950836;28;20118;-71
2021/07/02 04:48:06;;;;;;;30.92;15.90;;;;;;;18.52;100.00;100857.84;4953683;28;20540;-71
2021/07/02 04:50:32;;;;;;;32.20;16.90;;;;;;;18.46;100.00;100855.94;4940684;28;20040;-70
2021/07/02 04:52:57;;;;;;;35.65;16.35;;;;;;;18.56;100.00;100863.25;4955516;28;20031;-70
2021/07/02 04:55:23;;;;;;;33.33;17.17;;;;;;;18.48;100.00;100870.72;4947922;28;20097;-71
2021/07/02 04:57:48;;;;;;;34.33;16.23;;;;;;;18.45;100.00;100866.06;4956099;28;20041;-71
2021/07/02 05:00:14;;;;;;;34.95;15.75;;;;;;;18.48;100.00;100869.94;4952694;28;20031;-71
2021/07/02 05:02:39;;;;;;;32.08;16.45;;;;;;;18.55;100.00;100870.66;4948004;28;20027;-71
2021/07/02 05:05:05;;;;;;;30.08;16.05;;;;;;;18.41;100.00;100869.97;4948587;28;20066;-71
2021/07/02 05:07:31;;;;;;;30.67;15.88;;;;;;;18.40;100.00;100871.16;4947681;28;20031;-71
2021/07/02 05:09:58;;;;;;;29.40;14.75;;;;;;;18.43;100.00;100870.34;4944817;28;20476;-71
2021/07/02 05:12:24;;;;;;;31.23;14.70;;;;;;;18.59;100.00;100876.06;4946595;28;20024;-71
2021/07/02 05:14:50;;;;;;;23.95;13.93;;;;;;;18.61;100.00;100879.19;4946580;28;20061;-71
2021/07/02 05:17:15;;;;;;;31.95;14.85;;;;;;;18.46;100.00;100880.47;4953271;28;20040;-71
2021/07/02 05:19:41;;;;;;;33.83;15.23;;;;;;;18.40;100.00;100879.34;4949477;28;20035;-71
2021/07/02 05:22:21;;;;;;;32.35;14.27;;;;;;;18.64;100.00;100884.59;4953428;28;20514;-71
2021/07/02 05:24:47;;;;;;;26.88;14.00;;;;;;;19.05;100.00;100881.88;4953941;28;20034;-71
2021/07/02 05:27:14;;;;;;;25.25;12.65;;;;;;;19.36;100.00;100886.22;4960030;28;20034;-71
2021/07/02 05:29:39;;;;;;;27.20;13.25;;;;;;;19.96;100.00;100890.13;4953519;28;20557;-70
2021/07/02 05:32:05;;;;;;;27.10;13.52;;;;;;;20.74;100.00;100881.47;4966910;28;20027;-70
2021/07/02 05:34:31;;;;;;;22.80;11.65;;;;;;;21.54;98.20;100877.19;4947978;28;20098;-71
2021/07/02 05:36:57;;;;;;;23.05;11.02;;;;;;;22.28;93.45;100878.28;4941619;29;20042;-71
2021/07/02 05:39:23;;;;;;;19.02;10.95;;;;;;;22.92;88.90;100874.72;4950650;28;20489;-71
2021/07/02 05:41:49;;;;;;;21.58;10.90;;;;;;;22.87;87.00;100869.78;4945009;28;20038;-71
2021/07/02 05:44:14;;;;;;;20.65;11.05;;;;;;;22.42;88.91;100877.19;4955376;28;20118;-71
2021/07/02 05:46:40;;;;;;;25.30;11.88;;;;;;;21.78;91.70;100885.31;4963245;28;20117;-72
2021/07/02 05:49:05;;;;;;;24.80;12.45;;;;;;;21.41;94.92;100881.78;4945643;28;20047;-71
2021/07/02 05:51:31;;;;;;;23.52;12.35;;;;;;;21.12;96.19;100875.31;4939943;28;20043;-71
2021/07/02 05:53:57;;;;;;;23.08;11.95;;;;;;;21.23;97.03;100877.88;4935013;28;20036;-71
2021/07/02 05:56:28;;;;;;;19.23;11.32;;;;;;;21.29;95.69;100882.41;4939591;28;20035;-71
2021/07/02 05:58:57;;;;;;;21.25;11.18;;;;;;;21.00;96.52;100880.63;4950923;28;20090;-71
2021/07/02 06:01:23;;;;;;;20.23;10.48;;;;;;;20.87;97.57;100888.69;4947357;29;20127;-71
2021/07/02 06:03:49;;;;;;;25.95;11.85;;;;;;;20.82;96.81;100883.69;4947872;29;20027;-71
2021/07/02 06:06:14;;;;;;;19.02;10.77;;;;;;;20.92;97.56;100890.16;4946844;28;20039;-71
2021/07/02 06:08:40;;;;;;;19.52;11.20;;;;;;;21.55;94.03;100886.97;4952588;28;20075;-71
2021/07/02 06:11:05;;;;;;;17.65;10.52;;;;;;;21.98;93.71;100886.06;4949556;28;20032;-72
2021/07/02 06:13:31;;;;;;;21.58;10.68;;;;;;;22.51;91.33;100882.06;4946440;28;20031;-73
2021/07/02 06:15:57;;;;;;;20.67;10.60;;;;;;;22.80;88.30;100888.44;4949637;28;20122;-71
2021/07/02 06:18:22;;;;;;;26.25;13.13;;;;;;;22.38;88.99;100891.00;4948662;28;20042;-72
2021/07/02 06:20:52;;;;;;;24.08;13.52;;;;;;;21.94;90.16;100890.88;4949120;28;20035;-71
2021/07/02 06:23:21;;;;;;;26.15;14.02;;;;;;;21.44;92.88;100900.16;4954279;28;20031;-71
2021/07/02 06:25:47;;;;;;;25.60;13.73;;;;;;;21.02;95.09;100892.72;4955389;28;20046;-71
2021/07/02 06:28:13;;;;;;;28.20;14.43;;;;;;;20.87;97.52;100904.31;4933789;29;20031;-71
2021/07/02 06:30:40;;;;;;;22.27;13.30;;;;;;;20.96;97.23;100899.88;4954537;28;20039;-71
2021/07/02 06:33:06;;;;;;;22.52;13.27;;;;;;;20.86;97.38;100906.31;4954931;28;20051;-71
2021/07/02 06:35:31;;;;;;;23.60;13.68;;;;;;;20.75;98.07;100894.75;4944905;28;20149;-72
2021/07/02 06:37:57;;;;;;;26.60;14.10;;;;;;;20.76;98.73;100893.56;4954216;28;20031;-72
2021/07/02 06:40:22;;;;;;;25.33;14.43;;;;;;;20.95;99.13;100894.78;4954094;28;20035;-72
2021/07/02 06:42:48;;;;;;;23.17;13.02;;;;;;;21.09;97.05;100900.03;4955070;28;20118;-72
2021/07/02 06:45:16;;;;;;;21.40;13.20;;;;;;;21.15;97.17;100895.63;4947988;28;20023;-72
2021/07/02 06:48:05;;;;;;;24.45;13.68;;;;;;;21.07;96.96;100895.00;4951116;28;20502;-71
2021/07/02 06:50:36;;;;;;;20.35;12.18;;;;;;;20.94;97.43;100888.56;4946960;28;20501;-71
2021/07/02 06:53:03;;;;;;;20.55;10.98;;;;;;;20.88;96.11;100894.94;4952314;28;20046;-69
2021/07/02 06:55:30;;;;;;;16.80;11.23;;;;;;;20.93;96.35;100897.19;4950859;28;20127;-69
2021/07/02 06:57:55;;;;;;;19.83;11.32;;;;;;;20.87;96.72;100899.63;4946870;28;20115;-70
2021/07/02 07:00:22;;;;;;;24.67;13.43;;;;;;;20.80;96.62;100894.28;4949058;28;20479;-70
2021/07/02 07:02:49;;;;;;;23.38;13.00;;;;;;;20.56;98.21;100899.00;4953539;28;20532;-70
2021/07/02 07:05:15;;;;;;;22.15;13.15;;;;;;;20.44;99.33;100901.56;4948040;28;20074;-71
2021/07/02 07:07:42;;;;;;;30.00;14.57;;;;;;;20.52;99.08;100897.50;4954550;28;20056;-71
2021/07/02 07:10:08;;;;;;;30.17;13.85;;;;;;;20.38;100.00;100903.97;4954062;28;20443;-72
2021/07/02 07:12:34;;;;;;;34.88;14.60;;;;;;;20.52;99.90;100900.22;4955109;28;20033;-70
2021/07/02 07:15:00;;;;;;;28.13;14.20;;;;;;;20.49;100.00;100898.34;4955269;28;20043;-70
2021/07/02 07:17:25;;;;;;;26.52;15.10;;;;;;;20.38;100.00;100903.97;4953938;28;20094;-71
2021/07/02 07:19:51;;;;;;;25.77;15.25;;;;;;;20.58;100.00;100901.31;4951473;28;20505;-71
2021/07/02 07:22:17;;;;;;;30.10;16.48;;;;;;;20.46;100.00;100894.47;4957706;28;20035;-71
2021/07/02 07:24:42;;;;;;;27.58;15.02;;;;;;;20.55;99.98;100894.72;4953310;28;20457;-71
2021/07/02 07:27:08;;;;;;;29.67;15.43;;;;;;;20.46;100.00;100902.66;4955729;28;20131;-71
2021/07/02 07:29:34;;;;;;;26.33;15.20;;;;;;;20.35;100.00;100912.22;4950813;28;20031;-72
2021/07/02 07:32:01;;;;;;;25.42;14.20;;;;;;;20.41;99.96;100908.63;4965155;28;20027;-71
2021/07/02 07:37:06;;;;;;;24.65;14.60;;;;;;;20.30;99.46;100910.75;4948665;28;21004;-71
2021/07/02 07:39:32;;;;;;;28.83;14.13;;;;;;;20.21;100.00;100912.47;4952116;29;20501;-71
2021/07/02 07:41:57;;;;;;;29.10;13.85;;;;;;;20.23;100.00;100910.84;4937479;28;20031;-70
2021/07/02 07:44:23;;;;;;;26.40;14.07;;;;;;;20.30;99.66;100902.56;4948234;28;20087;-71
2021/07/02 07:46:49;;;;;;;31.20;14.38;;;;;;;20.37;100.00;100896.97;4952207;28;20098;-70
2021/07/02 07:49:14;;;;;;;27.80;14.02;;;;;;;20.26;100.00;100898.31;4944934;28;20564;-70
2021/07/02 07:51:54;;;;;;;30.10;14.40;;;;;;;20.65;100.00;100901.97;5018073;23;20031;-74
2021/07/02 07:54:20;;;;;;;23.20;13.80;;;;;;;20.93;99.86;100903.44;4948739;29;20039;-73
2021/07/02 07:56:53;;;;;;;29.08;14.23;;;;;;;20.97;97.97;100901.41;4951135;29;20441;-73
2021/07/02 07:59:28;;;;;;;25.20;13.68;;;;;;;20.88;97.69;100901.19;4941366;29;20086;-72
2021/07/02 08:01:54;;;;;;;22.63;13.80;;;;;;;21.01;96.49;100910.38;4947780;28;20146;-73
2021/07/02 08:04:19;;;;;;;23.35;13.68;;;;;;;20.86;96.66;100914.53;4932776;29;20131;-72
2021/07/02 08:06:46;;;;;;;24.77;13.57;;;;;;;21.03;96.41;100916.19;4950882;29;20500;-73
2021/07/02 08:09:13;;;;;;;23.95;13.85;;;;;;;21.04;96.78;100922.47;4949472;28;20747;-73
2021/07/02 08:11:43;;;;;;;29.15;14.93;;;;;;;21.07;96.28;100919.66;4945633;28;20035;-75
2021/07/02 08:14:09;;;;;;;22.33;13.75;;;;;;;20.93;98.15;100917.13;4949404;28;20385;-73
2021/07/02 08:16:36;;;;;;;28.90;14.60;;;;;;;20.99;98.08;100928.38;4950002;28;20035;-73
2021/07/02 08:19:03;;;;;;;29.70;15.63;;;;;;;21.03;98.82;100932.63;4948375;28;20055;-73
2021/07/02 08:21:28;;;;;;;24.73;14.10;;;;;;;21.25;98.42;100924.81;4952674;29;20031;-73
2021/07/02 08:23:54;;;;;;;21.75;13.35;;;;;;;21.45;95.93;100923.59;4948284;28;20031;-73
2021/07/02 08:26:20;;;;;;;22.63;13.35;;;;;;;21.53;95.17;100925.00;4947499;28;20035;-73
2021/07/02 08:31:31;;;;;;;26.90;13.68;;;;;;;21.63;95.70;100917.75;4938166;28;20035;-73
2021/07/02 08:33:57;;;;;;;24.13;12.60;;;;;;;21.84;96.31;100920.09;4944170;28;20050;-73
2021/07/02 08:36:22;;;;;;;24.67;13.20;;;;;;;22.11;94.17;100917.91;4949417;28;20035;-73
2021/07/02 08:38:48;;;;;;;22.75;12.48;;;;;;;22.23;91.69;100917.25;4945519;28;20791;-73
2021/07/02 08:41:14;;;;;;;19.02;12.50;;;;;;;22.37;91.88;100924.38;4950239;28;20469;-72
2021/07/02 08:43:47;;;;;;;20.50;12.75;;;;;;;22.58;91.06;100926.63;4933971;28;20045;-73
2021/07/02 08:46:15;;;;;;;22.92;12.23;;;;;;;22.79;88.83;100923.34;4945745;28;20114;-73
2021/07/02 08:48:44;;;;;;;19.73;12.45;;;;;;;22.87;89.83;100916.47;4930727;29;20493;-73
2021/07/02 08:51:10;;;;;;;28.27;12.05;;;;;;;22.89;88.70;100916.81;4950907;29;20127;-73
2021/07/02 08:53:36;;;;;;;19.45;11.90;;;;;;;22.97;88.85;100920.94;4948465;28;20130;-73
2021/07/02 08:56:03;;;;;;;21.67;11.25;;;;;;;23.16;87.55;100922.00;4936443;29;20050;-73
2021/07/02 08:58:30;;;;;;;19.08;10.23;;;;;;;23.29;86.65;100918.09;4950161;28;20031;-73
2021/07/02 09:00:55;;;;;;;23.25;11.10;;;;;;;23.39;86.77;100918.25;4933405;29;20816;-73
2021/07/02 09:03:32;;;;;;;16.35;10.48;;;;;;;23.25;86.64;100922.91;4951003;29;20031;-73
2021/07/02 09:06:17;;;;;;;22.98;11.65;;;;;;;23.32;86.35;100926.69;4949556;28;20050;-73
2021/07/02 09:08:59;;;;;;;19.83;11.50;;;;;;;23.12;84.41;100924.84;4935573;28;20568;-73
2021/07/02 09:11:34;;;;;;;19.05;11.13;;;;;;;23.19;86.04;100930.13;4932373;29;20035;-73
2021/07/02 09:14:00;;;;;;;19.95;10.80;;;;;;;23.38;85.78;100930.47;4934371;29;20512;-73
2021/07/02 09:16:47;;;;;;;20.70;11.48;;;;;;;23.55;82.74;100931.94;4949321;28;20031;-73
2021/07/02 09:19:23;;;;;;;18.33;10.43;;;;;;;23.76;80.96;100921.09;4953786;28;20062;-73
2021/07/02 09:21:49;;;;;;;18.02;11.10;;;;;;;23.76;80.98;100934.06;4951267;28;20105;-73
2021/07/02 09:24:36;;;;;;;15.05;9.95;;;;;;;23.75;80.29;100936.03;4948804;28;20027;-73
2021/07/02 09:27:24;;;;;;;14.82;9.50;;;;;;;23.79;80.96;100935.97;4949362;28;20059;-73
2021/07/02 09:30:11;;;;;;;17.05;9.80;;;;;;;23.96;78.93;100937.41;4933872;29;20036;-73
2021/07/02 09:32:46;;;;;;;15.85;9.02;;;;;;;24.23;80.32;100937.78;4953378;28;20292;-73
2021/07/02 09:35:14;;;;;;;13.50;8.82;;;;;;;24.53;78.54;100939.94;4946685;28;20038;-73
2021/07/02 09:37:41;;;;;;;14.15;9.07;;;;;;;24.46;78.91;100940.19;4915882;28;20037;-75
2021/07/02 09:40:11;;;;;;;16.83;9.50;;;;;;;24.34;79.42;100943.72;4951390;28;20498;-73
2021/07/02 09:42:37;;;;;;;17.35;9.25;;;;;;;24.35;78.58;100947.25;4947372;28;20476;-73
2021/07/02 09:45:12;;;;;;;15.00;9.93;;;;;;;24.43;78.79;100943.81;4951028;28;20046;-73
2021/07/02 09:47:41;;;;;;;15.30;9.45;;;;;;;24.32;78.96;100940.63;4946417;28;20031;-73
2021/07/02 09:50:12;;;;;;;20.17;10.40;;;;;;;24.40;79.31;100944.72;4948930;28;20039;-73
2021/07/02 09:52:47;;;;;;;20.42;8.88;;;;;;;24.40;77.92;100941.19;4931647;29;20166;-73
2021/07/02 09:55:18;;;;;;;11.00;7.80;;;;;;;24.71;72.85;100950.41;4948988;28;20035;-73
2021/07/02 09:57:44;;;;;;;13.25;9.15;;;;;;;24.71;73.98;100948.41;4947991;28;20023;-74
2021/07/02 10:00:15;;;;;;;16.55;9.27;;;;;;;24.96;73.41;100944.84;4950735;28;20486;-73
2021/07/02 10:02:58;;;;;;;26.52;10.88;;;;;;;25.20;73.26;100946.00;4947592;28;20417;-73
2021/07/02 10:05:24;;;;;;;32.50;10.90;;;;;;;25.41;72.53;100947.25;4946491;28;20125;-73
2021/07/02 10:08:03;;;;;;;25.67;10.20;;;;;;;25.59;71.73;100950.13;4949336;28;20113;-73
2021/07/02 10:10:30;;;;;;;20.30;10.32;;;;;;;25.65;69.86;100938.03;4945568;28;20035;-73
2021/07/02 10:12:57;;;;;;;16.13;10.23;;;;;;;25.72;71.52;100953.59;4945069;28;20097;-73
2021/07/02 10:15:24;;;;;;;16.27;8.98;;;;;;;25.84;72.07;100944.47;4949333;28;20035;-73
2021/07/02 10:17:51;;;;;;;13.15;9.02;;;;;;;25.96;71.52;100940.81;4949505;29;20046;-73
2021/07/02 10:20:17;;;;;;;13.73;8.63;;;;;;;26.18;70.02;100938.81;4945176;29;20117;-76
2021/07/02 10:22:45;;;;;;;14.85;9.23;;;;;;;26.16;69.58;100935.72;4933842;28;20031;-73
2021/07/02 10:25:12;;;;;;;14.52;8.60;;;;;;;26.31;67.10;100941.44;4927011;28;21537;-73
2021/07/02 10:27:38;;;;;;;15.52;9.10;;;;;;;26.42;67.72;100939.78;4949562;28;20126;-73
2021/07/02 10:30:25;;;;;;;13.68;8.40;;;;;;;26.28;67.24;100947.91;4932335;28;20069;-73
2021/07/02 10:32:55;;;;;;;14.75;8.27;;;;;;;25.93;67.72;100948.03;4892735;29;20044;-73
2021/07/02 10:35:22;;;;;;;18.60;8.45;;;;;;;25.87;68.06;100941.56;4898558;29;20036;-73
2021/07/02 10:37:54;;;;;;;21.42;9.40;;;;;;;25.93;68.25;100944.50;4896612;29;20083;-74
2021/07/02 10:40:21;;;;;;;14.27;8.85;;;;;;;25.71;68.66;100952.81;4888368;29;20134;-73
2021/07/02 10:43:17;;;;;;;12.52;8.93;;;;;;;25.35;69.40;100954.53;4890386;29;20123;-74
2021/07/02 10:46:07;;;;;;;14.93;9.25;;;;;;;25.38;69.45;100946.13;4874706;29;20059;-74
2021/07/02 10:48:55;;;;;;;15.80;8.50;;;;;;;25.54;69.42;100945.97;4889739;29;20060;-74
2021/07/02 10:51:30;;;;;;;17.75;9.18;;;;;;;25.92;68.38;100948.47;4892338;29;20056;-74
2021/07/02 10:54:20;;;;;;;14.93;9.02;;;;;;;26.30;67.73;100934.41;4892594;29;20052;-74
2021/07/02 10:56:58;;;;;;;13.82;8.30;;;;;;;26.21;66.77;100937.13;4884233;29;20044;-74
2021/07/02 10:59:36;;;;;;;16.67;7.93;;;;;;;26.15;67.24;100950.75;4891080;29;20498;-76
2021/07/02 11:02:08;;;;;;;12.75;7.57;;;;;;;26.22;67.29;100942.19;4887234;29;20111;-76
2021/07/02 11:04:35;;;;;;;12.38;7.68;;;;;;;26.54;66.42;100947.22;4873855;29;20087;-75
2021/07/02 11:07:12;;;;;;;13.27;7.32;;;;;;;26.51;63.80;100934.31;4890426;29;20119;-76
2021/07/02 11:12:20;;;;;;;11.75;6.25;;;;;;;26.92;64.33;100940.53;4934509;28;20047;-77
2021/07/02 11:14:55;;;;;;;13.25;6.93;;;;;;;27.14;60.30;100941.19;4935769;29;20387;-76
2021/07/02 11:17:26;;;;;;;10.10;6.32;;;;;;;26.93;61.61;100950.38;4953433;28;20505;-77
2021/07/02 11:20:07;;;;;;;12.18;6.50;;;;;;;26.79;62.35;100933.16;4932551;29;20099;-76
2021/07/02 11:22:35;;;;;;;;;;;;;;;26.75;63.06;100937.31;4933338;28;20050;-76